Banners Open handicap XC 200513

Saturday, May 20, 2017 13:42 (GMT+12) - Final results

Race info
Sport: Running - cross-country
Location: Halcombe, New Zealand
Start type: Pursuit start
Racers: 21
Timed on: samsung SM-T550
Timed with: Webscorer PRO 2.6
Updated: Saturday, May 20, 2017 20:31 (GMT+12)
Race notes
Heavy rain in the days before made for tough going and slippery cross country conditions for everyone. It was a course where the strong runners tended to prevail even with time handicaps applied. The 8 degree temperature ensured nobody overheated!
Show more Show less

Contact organizer

Use this form to send an email to the organizer.

Your name
Your email address
Confirm email address
Message to organizer
Send

Place Bib Racer name Category Finish time
1178Benjamin Wallcolt 21:51--100%41.05%40.87%14:16:37
2168Andre Le Pine-Daycolt 23:25+1:34+7.17%93.31%36.82%36.63%14:15:17
3163Nelson Doolancolt 24:26+2:35+11.82%89.43%34.08%33.87%14:14:37
4179Liam Wallcolt 24:41+2:50+12.97%88.52%33.40%33.20%14:14:47
5184Tessa Webbjunior women 24:42+2:51+13.04%88.46%33.36%33.15%14:14:37
6167Hayden Hutchinsoncolt 28:27+6:36+30.21%76.80%23.24%23.00%14:12:07
7164Max Fergusoncolt 28:48+6:57+31.81%75.87%22.30%22.06%14:12:07
8257Visitor 17 ZZwomen 31:43+9:52+45.16%68.89%14.43%14.16%13:42:37
9170Lucas Luonicolt 32:36+10:45+49.20%67.02%12.04%11.77%14:12:07
10239Jo Spearywomen 34:25+12:34+57.51%63.49%7.14%6.86%14:05:57
11205Shirley Fotheringhamwomen 36:57+15:06+69.11%59.13%0.31%0.00%14:04:27
12233Rosie Rochesterwomen 37:29+15:38+71.55%58.29%-1.13%-1.44%14:07:17
13264Visitor1 ZZwomen 37:54+16:03+73.46%57.65%-2.25%-2.57%13:47:37
14196Vanessa Daveywomen 40:14+18:23+84.13%54.31%-8.55%-8.89%14:05:57
15217Joana Massawomen 40:44+18:53+86.42%53.64%-9.90%-10.24%14:00:17
16187Debra Arnoldwomen 43:44+21:53+100.15%49.96%-17.99%-18.36%14:01:17
17202Lorraine Edgarwomen 44:56+23:05+105.64%48.63%-21.23%-21.61%13:52:37
18192Catherine Clementwomen 48:40+26:49+122.73%44.90%-31.30%-31.71%13:59:27
19219Denise McLeanwomen 52:58+31:07+142.41%41.25%-42.90%-43.35%13:47:37
20212Raewyn Hydewomen 54:55+33:04+151.33%39.79%-48.17%-48.62%13:42:37
21229Sharon Rawlinsonwomen 1:04:46+42:55+196.41%33.74%-74.74%-75.28%13:42:37